Flight Track Log - Related Links

Times and Time Zones

All times are in EST time to prevent confusion due to time zone crossing. See the UPS1321 flight status page for this flight to view local times or setup timezone preferences in your user account.


Time Position Orientation Groundspeed Altitude Reporting Facility
EST Latitude Longitude Course Direction KTS MPH feet Rate Location/Type
Tue 10:06:16 PM 30.4886 -81.6994 335° Northwest 131 151 800  Level Jacksonville Center
Tue 10:06:58 PM 30.5136 -81.7111 338° Northwest 143 165 2,400 2,039 Climbing Jacksonville Center
Tue 10:07:59 PM 30.5825 -81.7175 355° North 295 339 4,300 3,052 Climbing Jacksonville Center
Tue 10:08:54 PM 30.6619 -81.7164 North 302 348 8,300 4,231 Climbing Jacksonville Center
Tue 10:09:17 PM 30.6953 -81.7183 357° North 306 352 9,800 2,602 Climbing Jacksonville Center
Tue 10:10:17 PM 30.7875 -81.7319 353° North 336 387 11,900 2,550 Climbing Jacksonville Center
Tue 10:11:00 PM 30.8424 -81.8865 335° Northwest  Level FlightAware Approximate
Tue 10:11:17 PM 30.8508 -81.8303 307° West 341 392 14,900  Level Jacksonville Center
Tue 10:12:17 PM 30.9142 -81.9289 307° West 347 399 18,400 3,150 Climbing Jacksonville Center
Tue 10:13:17 PM 31.0108 -81.9908 331° Northwest 387 445 21,200 2,550 Climbing Jacksonville Center
Tue 10:14:17 PM 31.1261 -82.0431 339° North 404 465 23,500 2,650 Climbing Jacksonville Center
Tue 10:15:17 PM 31.2411 -82.0956 339° North 427 491 26,500 2,500 Climbing Jacksonville Center
Tue 10:16:17 PM 31.3522 -82.1506 337° Northwest 433 498 28,500 1,938 Climbing Jacksonville Center
Tue 10:18:29 PM 31.6067 -82.2711 338° Northwest 441 507 32,700 1,406 Climbing Atlanta Center
Tue 10:19:29 PM 31.7181 -82.3250 338° Northwest 441 507 33,000 400 Climbing Atlanta Center
Tue 10:20:29 PM 31.8253 -82.3864 334° Northwest 428 493 33,500 500 Climbing Atlanta Center
Tue 10:21:29 PM 31.9306 -82.4483 333° Northwest 422 486 34,000 250 Climbing Atlanta Center
Tue 10:22:29 PM 32.0294 -82.5125 331° Northwest 417 480 34,000  Level Atlanta Center
Tue 10:23:29 PM 32.1386 -82.5622 339° North 412 474 34,000  Level Atlanta Center
Tue 10:24:29 PM 32.2517 -82.6069 342° North 417 480 34,000  Level Atlanta Center
Tue 10:25:29 PM 32.3628 -82.6519 341° North 417 480 34,000  Level Atlanta Center
Tue 10:26:29 PM 32.4761 -82.6969 341° North 422 486 34,000  Level Atlanta Center
Tue 10:27:29 PM 32.5706 -82.7400 339° North 414 476 34,000  Level Atlanta Center
Tue 10:28:29 PM 32.6836 -82.7828 342° North 414 476 34,000  Level Atlanta Center
Tue 10:29:29 PM 32.7947 -82.8306 340° North 414 476 34,000  Level Atlanta Center
Tue 10:30:29 PM 32.9100 -82.8758 342° North 420 483 34,000  Level Atlanta Center
Tue 10:31:29 PM 33.0231 -82.9239 340° North 420 483 34,000  Level Atlanta Center
Tue 10:32:29 PM 33.1489 -82.9769 341° North 432 497 34,000  Level Atlanta Center
Tue 10:33:29 PM 33.2661 -83.0253 341° North 432 497 34,000  Level Atlanta Center
Tue 10:34:29 PM 33.3667 -83.0661 341° North 427 491 34,000  Level Atlanta Center
Tue 10:35:29 PM 33.4819 -83.1147 341° North 437 503 34,000  Level Atlanta Center
Tue 10:36:29 PM 33.5969 -83.1608 342° North 431 496 34,000  Level Atlanta Center
Tue 10:42:07 PM 34.2597 -83.4397 342° North 441 507 34,000  Level FlightAware ADS-B
Tue 10:42:47 PM 34.3394 -83.4734 341° North 442 509 34,000  Level FlightAware ADS-B
Tue 10:43:27 PM 34.4203 -83.5080 341° North 440 506 34,000  Level FlightAware ADS-B
Tue 10:44:05 PM 34.4832 -83.5351 340° North 440 506 34,000  Level FlightAware ADS-B
Tue 10:44:45 PM 34.5594 -83.5673 341° North 440 506 34,000  Level FlightAware ADS-B
Tue 10:45:28 PM 34.6525 -83.6079 340° North 442 509 34,000  Level FlightAware ADS-B
Tue 10:46:07 PM 34.7256 -83.6393 341° North 441 507 34,000  Level FlightAware ADS-B
Tue 10:46:48 PM 34.8078 -83.6742 341° North 432 497 34,000  Level FlightAware ADS-B
Tue 10:47:27 PM 34.8835 -83.7075 340° North 441 507 34,000  Level FlightAware ADS-B
Tue 10:48:08 PM 34.9616 -83.7409 341° North 442 509 34,000  Level FlightAware ADS-B
Tue 10:48:48 PM 35.0355 -83.7733 340° North 432 497 34,000  Level FlightAware ADS-B
Tue 10:49:28 PM 35.1150 -83.8073 341° North 429 494 34,000  Level FlightAware ADS-B
Tue 10:50:08 PM 35.1899 -83.8408 340° North 433 498 34,000  Level FlightAware ADS-B
Tue 10:50:48 PM 35.2622 -83.8721 340° North 445 512 34,000  Level FlightAware ADS-B
Tue 10:51:28 PM 35.3364 -83.9043 340° North 445 512 34,000  Level FlightAware ADS-B
Tue 10:52:29 PM 35.4575 -83.9597 340° North 433 498 34,000  Level Atlanta Center
Tue 10:53:29 PM 35.5744 -84.0133 340° North 433 498 34,000  Level Atlanta Center
Tue 10:54:29 PM 35.6892 -84.0644 340° North 433 498 34,000  Level Atlanta Center
Tue 10:55:29 PM 35.8058 -84.1156 340° North 433 498 34,000  Level Atlanta Center
Tue 10:56:29 PM 35.9206 -84.1694 339° North 433 498 34,000  Level Atlanta Center
Tue 10:57:29 PM 36.0331 -84.2236 339° North 433 498 34,000 -400 Level Atlanta Center
Tue 10:58:29 PM 36.1497 -84.2778 339° North 433 498 33,200 -889 Descending Atlanta Center
Tue 10:59:44 PM 36.2858 -84.3397 340° North 451 519 32,000 -1,422 Descending Indianapolis Center
Tue 11:00:44 PM 36.4019 -84.3961 339° North 451 519 30,000 -992 Descending Indianapolis Center
Tue 11:01:45 PM 36.5322 -84.4547 340° North 442 509 30,000 -344 Level Indianapolis Center
Tue 11:02:46 PM 36.6489 -84.5053 341° North 442 509 29,300 -1,082 Descending Indianapolis Center
Tue 11:03:47 PM 36.7503 -84.5492 341° North 450 518 27,800 -1,934 Descending Indianapolis Center
Tue 11:04:47 PM 36.8664 -84.5994 341° North 443 510 25,400 -2,380 Descending Indianapolis Center
Tue 11:05:48 PM 36.9769 -84.6489 340° North 426 490 23,000 -2,508 Descending Indianapolis Center
Tue 11:06:49 PM 37.1056 -84.7053 341° North 421 484 20,300 -2,311 Descending Indianapolis Center
Tue 11:07:50 PM 37.2153 -84.7547 340° North 417 480 18,300 -1,869 Descending Indianapolis Center
Tue 11:08:51 PM 37.3197 -84.8014 340° North 402 463 16,500 -1,338 Descending Indianapolis Center
Tue 11:14:20 PM 37.7663 -85.1131 340° North 256 295 9,600 -1,234 Descending FlightAware ADS-B
Tue 11:15:20 PM 37.7954 -85.1943 294° West 251 289 8,500 -1,099 Descending FlightAware ADS-B
Tue 11:16:31 PM 37.8286 -85.2890 294° West 248 285 7,200 -1,053 Descending FlightAware ADS-B
Tue 11:17:31 PM 37.8568 -85.3677 294° West 244 281 6,200 -1,008 Descending FlightAware ADS-B
Tue 11:18:30 PM 37.8840 -85.4449 294° West 244 281 5,200 -1,008 Descending FlightAware ADS-B
Tue 11:19:30 PM 37.9115 -85.5230 294° West 241 277 4,200 -992 Descending FlightAware ADS-B
Tue 11:20:31 PM 37.9394 -85.6017 294° West 241 277 3,200 -800 Descending FlightAware ADS-B
Tue 11:21:30 PM 37.9647 -85.6690 295° West 204 235 2,600 -303 Descending FlightAware ADS-B
Tue 11:22:30 PM 38.0180 -85.6931 340° North 191 220 2,600 -250 Level FlightAware ADS-B
Tue 11:23:30 PM 38.0641 -85.7083 345° North 150 173 2,100 -595 Descending FlightAware ADS-B
Tue 11:24:31 PM 38.0973 -85.7191 346° North 114 131 1,400 -696 Descending FlightAware ADS-B
Tue 11:25:22 PM 38.1240 -85.7279 345° North 114 131 800 -425 Descending FlightAware ADS-B
Tue 11:26:24 PM 38.1500 -85.7333 208° Southwest 117 135 600 -194 Descending Louisville TRACON
Tue 11:28:00 PM 38.1667 -85.7333 208° Southwest  Level FlightAware Approximate

Login

Don't have an account? Register now (free) for customized features, flight alerts, and more!